Time;durP1;ratioP1;P1;durP2;ratioP2;P2;SDS_P1;SDS_P2;PMS_P1;PMS_P2;Temp;Humidity;BMP_temperature;BMP_pressure;BME280_temperature;BME280_humidity;BME280_pressure;Samples;Min_cycle;Max_cycle;Signal;HPM_P1;HPM_P2
2022/04/28 00:00:06;;;;;;;;;;;7.40;86.10;;;;;;4944133;28;20300;-78
2022/04/28 00:02:33;;;;;;;;;;;7.30;86.60;;;;;;4942933;28;19933;-78
2022/04/28 00:05:01;;;;;;;;;;;7.30;87.40;;;;;;4939966;28;19981;-78
2022/04/28 00:07:28;;;;;;;;;;;7.30;87.30;;;;;;4939506;28;19934;-78
2022/04/28 00:09:55;;;;;;;;;;;7.30;88.10;;;;;;4938731;28;19930;-76
2022/04/28 00:12:21;;;;;;;;;;;7.30;88.60;;;;;;4937544;28;20435;-78
2022/04/28 00:14:48;;;;;;;;;;;7.20;89.10;;;;;;4942757;28;19926;-79
2022/04/28 00:17:15;;;;;;;;;;;7.20;89.90;;;;;;4947736;28;19927;-79
2022/04/28 00:19:41;;;;;;;;;;;7.10;90.20;;;;;;4945694;28;20381;-79
2022/04/28 00:22:09;;;;;;;;;;;7.10;90.30;;;;;;4943418;28;20120;-78
2022/04/28 00:24:36;;;;;;;;;;;7.20;90.40;;;;;;4943483;28;20634;-78
2022/04/28 00:27:03;;;;;;;;;;;7.10;90.50;;;;;;4940170;28;19933;-78
2022/04/28 00:29:29;;;;;;;;;;;7.10;90.50;;;;;;4944275;28;20378;-78
2022/04/28 00:31:56;;;;;;;;;;;7.10;90.60;;;;;;4939075;28;19933;-78
2022/04/28 00:34:23;;;;;;;;;;;7.10;90.70;;;;;;4943928;28;20699;-78
2022/04/28 00:36:49;;;;;;;;;;;7.10;90.80;;;;;;4938795;28;19981;-78
2022/04/28 00:39:17;;;;;;;;;;;7.10;91.20;;;;;;4941326;28;19933;-77
2022/04/28 00:41:44;;;;;;;;;;;7.00;91.30;;;;;;4947257;28;19927;-79
2022/04/28 00:44:11;;;;;;;;;;;7.00;91.50;;;;;;4940076;28;19932;-78
2022/04/28 00:46:38;;;;;;;;;;;7.00;91.70;;;;;;4939333;28;19926;-78
2022/04/28 00:51:49;;;;;;;;;;;7.00;91.90;;;;;;4941156;28;20436;-79
2022/04/28 00:54:15;;;;;;;;;;;7.00;92.10;;;;;;4938453;28;20472;-78
2022/04/28 00:56:43;;;;;;;;;;;6.90;92.40;;;;;;4941834;28;19941;-79
2022/04/28 00:59:11;;;;;;;;;;;6.90;92.50;;;;;;4944721;28;19926;-77
2022/04/28 01:01:38;;;;;;;;;;;6.90;92.90;;;;;;4945462;28;20410;-77
2022/04/28 01:04:05;;;;;;;;;;;6.80;93.20;;;;;;4941464;28;20393;-77
2022/04/28 01:06:32;;;;;;;;;;;6.80;93.50;;;;;;4947232;28;19930;-78
2022/04/28 01:08:59;;;;;;;;;;;6.80;93.90;;;;;;4938808;28;20134;-79
2022/04/28 01:11:26;;;;;;;;;;;6.70;94.20;;;;;;4943683;28;20455;-76
2022/04/28 01:13:54;;;;;;;;;;;6.70;94.40;;;;;;4933698;28;19931;-76
2022/04/28 01:16:21;;;;;;;;;;;6.60;94.80;;;;;;4938948;28;19927;-78
2022/04/28 01:18:47;;;;;;;;;;;6.60;95.30;;;;;;4940820;28;19927;-78
2022/04/28 01:21:15;;;;;;;;;;;6.60;95.60;;;;;;4939859;28;21159;-77
2022/04/28 01:23:42;;;;;;;;;;;6.60;95.50;;;;;;4940402;28;19970;-77
2022/04/28 01:26:08;;;;;;;;;;;6.60;95.90;;;;;;4939090;28;19933;-77
2022/04/28 01:28:35;;;;;;;;;;;6.60;95.90;;;;;;4943471;28;19927;-77
2022/04/28 01:31:02;;;;;;;;;;;6.60;96.20;;;;;;4942950;28;19952;-76
2022/04/28 01:33:29;;;;;;;;;;;6.50;96.50;;;;;;4939613;28;20037;-76
2022/04/28 01:35:56;;;;;;;;;;;6.50;96.60;;;;;;4938701;28;20408;-76
2022/04/28 01:38:24;;;;;;;;;;;6.50;96.80;;;;;;4940196;28;20415;-76
2022/04/28 01:40:51;;;;;;;;;;;6.50;97.00;;;;;;4942484;28;20173;-76
2022/04/28 01:43:18;;;;;;;;;;;6.50;97.00;;;;;;4938690;28;19926;-76
2022/04/28 01:45:44;;;;;;;;;;;6.50;97.20;;;;;;4941273;28;19927;-76
2022/04/28 01:48:11;;;;;;;;;;;6.50;97.30;;;;;;4940195;28;19930;-76
2022/04/28 01:50:38;;;;;;;;;;;6.50;97.40;;;;;;4944562;28;20048;-76
2022/04/28 01:55:50;;;;;;;;;;;6.40;97.90;;;;;;4932732;28;19934;-78
2022/04/28 01:58:16;;;;;;;;;;;6.40;98.30;;;;;;4944269;28;20394;-78
2022/04/28 02:00:43;;;;;;;;;;;6.30;98.40;;;;;;4940423;28;22092;-78
2022/04/28 02:03:10;;;;;;;;;;;6.30;98.50;;;;;;4943736;28;19931;-77
2022/04/28 02:05:36;;;;;;;;;;;6.30;98.60;;;;;;4941262;28;20050;-77
2022/04/28 02:08:03;;;;;;;;;;;6.30;98.90;;;;;;4944070;28;19926;-77
2022/04/28 02:10:30;;;;;;;;;;;6.30;98.90;;;;;;4940031;28;19926;-77
2022/04/28 02:12:58;;;;;;;;;;;6.30;99.20;;;;;;4937582;28;19931;-77
2022/04/28 02:15:25;;;;;;;;;;;6.30;99.30;;;;;;4936967;28;20374;-77
2022/04/28 02:17:51;;;;;;;;;;;6.20;99.50;;;;;;4943654;28;19941;-80
2022/04/28 02:20:18;;;;;;;;;;;6.20;99.50;;;;;;4938693;28;19937;-77
2022/04/28 02:22:45;;;;;;;;;;;6.20;99.50;;;;;;4934889;28;19986;-77
2022/04/28 02:25:12;;;;;;;;;;;6.20;99.70;;;;;;4939842;28;21372;-76
2022/04/28 02:27:38;;;;;;;;;;;6.20;99.90;;;;;;4940335;28;19934;-76
2022/04/28 02:30:07;;;;;;;;;;;6.20;99.90;;;;;;4934172;28;19957;-77
2022/04/28 02:35:14;;;;;;;;;;;6.10;99.90;;;;;;4944336;28;19930;-76
2022/04/28 02:37:41;;;;;;;;;;;6.10;99.90;;;;;;4942233;28;20288;-76
2022/04/28 02:40:08;;;;;;;;;;;6.10;99.90;;;;;;4939637;28;19927;-77
2022/04/28 02:42:35;;;;;;;;;;;6.10;99.90;;;;;;4947576;28;19930;-78
2022/04/28 02:45:03;;;;;;;;;;;6.00;99.90;;;;;;4944190;28;20382;-77
2022/04/28 02:47:31;;;;;;;;;;;6.00;99.90;;;;;;4942139;28;19930;-77
2022/04/28 02:49:58;;;;;;;;;;;6.10;99.90;;;;;;4938966;28;20012;-77
2022/04/28 02:52:25;;;;;;;;;;;6.10;99.90;;;;;;4945004;28;19961;-77
2022/04/28 02:54:52;;;;;;;;;;;6.10;99.90;;;;;;4941613;28;19934;-76
2022/04/28 02:57:18;;;;;;;;;;;6.10;99.90;;;;;;4945101;28;19927;-77
2022/04/28 02:59:45;;;;;;;;;;;6.00;99.90;;;;;;4935765;28;19937;-77
2022/04/28 03:02:12;;;;;;;;;;;6.10;99.90;;;;;;4941677;28;19926;-76
2022/04/28 03:04:40;;;;;;;;;;;6.10;99.90;;;;;;4940945;28;20409;-78
2022/04/28 03:12:37;;;;;;;;;;;6.00;99.90;;;;;;4941682;28;19938;-78
2022/04/28 03:15:04;;;;;;;;;;;6.00;99.90;;;;;;4947388;28;19927;-77
2022/04/28 03:17:31;;;;;;;;;;;6.00;99.90;;;;;;4940842;28;20013;-77
2022/04/28 03:19:59;;;;;;;;;;;5.90;99.90;;;;;;4941134;28;20021;-77
2022/04/28 03:22:26;;;;;;;;;;;5.90;99.90;;;;;;4938630;28;19937;-76
2022/04/28 03:24:53;;;;;;;;;;;5.90;99.90;;;;;;4941908;28;19966;-77
2022/04/28 03:27:20;;;;;;;;;;;5.80;99.90;;;;;;4944683;28;19974;-80
2022/04/28 03:29:46;;;;;;;;;;;5.90;99.90;;;;;;4952654;28;19927;-80
2022/04/28 03:32:13;;;;;;;;;;;5.90;99.90;;;;;;4956774;28;19984;-80
2022/04/28 03:34:40;;;;;;;;;;;5.90;99.90;;;;;;4957978;28;19946;-80
2022/04/28 03:37:08;;;;;;;;;;;5.90;99.90;;;;;;4955602;28;19927;-80
2022/04/28 03:39:37;;;;;;;;;;;5.90;99.90;;;;;;4956952;28;20021;-80
2022/04/28 03:42:04;;;;;;;;;;;5.80;99.90;;;;;;4940710;28;20371;-79
2022/04/28 03:44:30;;;;;;;;;;;5.90;99.90;;;;;;4941388;28;20017;-79
2022/04/28 03:46:57;;;;;;;;;;;5.90;99.90;;;;;;4945164;28;19927;-79
2022/04/28 03:49:24;;;;;;;;;;;5.90;99.90;;;;;;4941415;28;19927;-79
2022/04/28 03:51:50;;;;;;;;;;;5.90;99.90;;;;;;4943920;28;19927;-79
2022/04/28 03:54:21;;;;;;;;;;;5.90;99.90;;;;;;4940753;28;19933;-79
2022/04/28 03:56:48;;;;;;;;;;;5.80;99.90;;;;;;4941645;28;20413;-79
2022/04/28 03:59:15;;;;;;;;;;;5.80;99.90;;;;;;4940449;28;19927;-79
2022/04/28 04:01:42;;;;;;;;;;;5.80;99.90;;;;;;4970962;28;19984;-80
2022/04/28 04:04:08;;;;;;;;;;;5.80;99.90;;;;;;4963143;28;19933;-80
2022/04/28 04:06:35;;;;;;;;;;;5.80;99.90;;;;;;4959960;28;19982;-80
2022/04/28 04:09:02;;;;;;;;;;;5.70;99.90;;;;;;4964788;28;19969;-79
2022/04/28 04:11:30;;;;;;;;;;;5.70;99.90;;;;;;4962518;28;19956;-79
2022/04/28 04:13:56;;;;;;;;;;;5.70;99.90;;;;;;4964941;28;19973;-80
2022/04/28 04:16:23;;;;;;;;;;;5.70;99.90;;;;;;4971250;28;19974;-80
2022/04/28 04:18:50;;;;;;;;;;;5.70;99.90;;;;;;4975110;28;19986;-80
2022/04/28 04:21:16;;;;;;;;;;;5.70;99.90;;;;;;4974656;28;19966;-79
2022/04/28 04:23:43;;;;;;;;;;;5.70;99.90;;;;;;4964688;28;19927;-80
2022/04/28 04:26:10;;;;;;;;;;;5.70;99.90;;;;;;4964939;28;19917;-71
2022/04/28 04:28:38;;;;;;;;;;;5.60;99.90;;;;;;4959181;28;19917;-72
2022/04/28 04:33:48;;;;;;;;;;;5.60;99.90;;;;;;4996676;28;19944;-79
2022/04/28 04:36:15;;;;;;;;;;;5.60;99.90;;;;;;4980409;28;19933;-79
2022/04/28 04:38:42;;;;;;;;;;;5.60;99.90;;;;;;4977967;28;19911;-67
2022/04/28 04:41:11;;;;;;;;;;;5.60;99.90;;;;;;4978468;28;19941;-77
2022/04/28 04:43:39;;;;;;;;;;;5.60;99.90;;;;;;4978692;28;19911;-70
2022/04/28 04:46:06;;;;;;;;;;;5.60;99.90;;;;;;5064757;23;19941;-81
2022/04/28 04:48:33;;;;;;;;;;;5.60;99.90;;;;;;4978182;28;19933;-73
2022/04/28 04:51:00;;;;;;;;;;;6.30;99.90;;;;;;4977967;28;19911;-83
2022/04/28 04:53:27;;;;;;;;;;;5.40;99.90;;;;;;4978024;28;19914;-81
2022/04/28 04:55:54;;;;;;;;;;;6.50;99.90;;;;;;4966612;28;19918;-77
2022/04/28 04:58:21;;;;;;;;;;;6.40;99.90;;;;;;4958885;28;19919;-72
2022/04/28 05:00:49;;;;;;;;;;;5.60;99.90;;;;;;4959000;28;19942;-70
2022/04/28 05:03:16;;;;;;;;;;;5.80;99.90;;;;;;4959291;28;19911;-68
2022/04/28 05:05:44;;;;;;;;;;;5.70;99.90;;;;;;4958496;28;19942;-77
2022/04/28 05:08:10;;;;;;;;;;;5.80;99.90;;;;;;4952590;28;19931;-79
2022/04/28 05:10:37;;;;;;;;;;;5.80;99.90;;;;;;4975584;28;19927;-80
2022/04/28 05:13:04;;;;;;;;;;;5.90;99.90;;;;;;4978878;28;19911;-80
2022/04/28 05:15:31;;;;;;;;;;;5.90;99.90;;;;;;4968583;28;19918;-77
2022/04/28 05:17:59;;;;;;;;;;;5.90;99.90;;;;;;4958978;28;19946;-79
2022/04/28 05:20:26;;;;;;;;;;;6.00;99.90;;;;;;4960614;28;19922;-75
2022/04/28 05:22:52;;;;;;;;;;;6.00;99.90;;;;;;4973425;28;19949;-76
2022/04/28 05:25:19;;;;;;;;;;;6.10;99.90;;;;;;4977209;28;19957;-71
2022/04/28 05:27:46;;;;;;;;;;;6.20;99.90;;;;;;4978225;28;19997;-64
2022/04/28 05:30:13;;;;;;;;;;;6.20;99.90;;;;;;4969467;28;19917;-81
2022/04/28 05:32:40;;;;;;;;;;;6.30;99.90;;;;;;4970523;28;19931;-80
2022/04/28 05:35:08;;;;;;;;;;;6.40;99.90;;;;;;4976945;28;20424;-81
2022/04/28 05:37:35;;;;;;;;;;;6.50;99.90;;;;;;4982142;28;19941;-80
2022/04/28 05:40:02;;;;;;;;;;;6.50;99.90;;;;;;5004688;28;19953;-81
2022/04/28 05:47:54;;;;;;;;;;;6.70;99.90;;;;;;4977489;28;19982;-70
2022/04/28 05:50:22;;;;;;;;;;;6.80;99.90;;;;;;4977591;28;19958;-77
2022/04/28 05:52:48;;;;;;;;;;;6.90;99.90;;;;;;4970545;28;19942;-69
2022/04/28 05:55:17;;;;;;;;;;;6.90;99.90;;;;;;4969778;28;19910;-74
2022/04/28 05:57:44;;;;;;;;;;;7.00;99.90;;;;;;4977021;28;19954;-83
2022/04/28 06:00:11;;;;;;;;;;;7.20;99.90;;;;;;4967463;28;19922;-81
2022/04/28 06:02:38;;;;;;;;;;;7.30;99.60;;;;;;4960395;28;20296;-78
2022/04/28 06:05:05;;;;;;;;;;;7.30;99.80;;;;;;4953119;28;20445;-79
2022/04/28 06:07:33;;;;;;;;;;;7.40;99.70;;;;;;4953212;28;20102;-79
2022/04/28 06:10:00;;;;;;;;;;;7.50;99.70;;;;;;4955052;28;20014;-79
2022/04/28 06:12:27;;;;;;;;;;;7.60;99.30;;;;;;4979965;28;19927;-78
2022/04/28 06:14:54;;;;;;;;;;;7.70;98.80;;;;;;4956829;28;19932;-77
2022/04/28 06:17:21;;;;;;;;;;;7.70;98.40;;;;;;4952195;28;19930;-78
2022/04/28 06:19:48;;;;;;;;;;;7.80;98.10;;;;;;4955132;28;19980;-79
2022/04/28 06:22:14;;;;;;;;;;;7.80;97.80;;;;;;4948103;28;19974;-78
2022/04/28 06:24:42;;;;;;;;;;;7.90;97.70;;;;;;4960208;28;20459;-78
2022/04/28 06:27:09;;;;;;;;;;;8.00;97.10;;;;;;4950589;28;19962;-78
2022/04/28 06:29:36;;;;;;;;;;;8.00;97.00;;;;;;4954389;28;19933;-78
2022/04/28 06:32:02;;;;;;;;;;;8.10;97.10;;;;;;4953635;28;19958;-78
2022/04/28 06:34:29;;;;;;;;;;;8.20;97.40;;;;;;4947155;28;19926;-78
2022/04/28 06:36:56;;;;;;;;;;;8.20;96.30;;;;;;4948838;28;20273;-79
2022/04/28 06:39:22;;;;;;;;;;;8.20;96.30;;;;;;4949587;28;20011;-82
2022/04/28 06:41:50;;;;;;;;;;;8.40;96.30;;;;;;4950542;28;19970;-79
2022/04/28 06:44:17;;;;;;;;;;;8.50;96.60;;;;;;4945977;28;19927;-78
2022/04/28 06:46:44;;;;;;;;;;;8.60;95.40;;;;;;4950181;28;20412;-79
2022/04/28 06:49:11;;;;;;;;;;;8.70;95.50;;;;;;4956022;28;20432;-74
2022/04/28 06:51:37;;;;;;;;;;;8.70;94.80;;;;;;4953952;28;19926;-79
2022/04/28 06:54:04;;;;;;;;;;;8.80;94.40;;;;;;4954823;28;20473;-77
2022/04/28 06:56:31;;;;;;;;;;;8.80;94.60;;;;;;4950802;28;19927;-78
2022/04/28 06:58:59;;;;;;;;;;;8.90;94.50;;;;;;4954658;28;19927;-79
2022/04/28 07:01:26;;;;;;;;;;;9.20;94.00;;;;;;4958744;28;19945;-78
2022/04/28 07:03:52;;;;;;;;;;;10.10;91.60;;;;;;4948380;28;19934;-81
2022/04/28 07:06:19;;;;;;;;;;;10.80;90.10;;;;;;4945642;28;19926;-82
2022/04/28 07:08:46;;;;;;;;;;;11.10;84.50;;;;;;4949013;28;20022;-82
2022/04/28 07:11:12;;;;;;;;;;;11.40;79.70;;;;;;4939096;28;20382;-83
2022/04/28 07:13:39;;;;;;;;;;;11.20;79.40;;;;;;4940957;28;19931;-81
2022/04/28 07:16:07;;;;;;;;;;;12.10;76.90;;;;;;4937677;28;20108;-83
2022/04/28 07:18:34;;;;;;;;;;;11.80;72.90;;;;;;4948626;28;19926;-82
2022/04/28 07:21:01;;;;;;;;;;;11.30;73.10;;;;;;4946426;28;19931;-82
2022/04/28 07:23:28;;;;;;;;;;;11.40;75.40;;;;;;4958393;28;19973;-86
2022/04/28 07:25:54;;;;;;;;;;;12.20;71.50;;;;;;4944960;28;19962;-86
2022/04/28 07:28:21;;;;;;;;;;;12.40;68.10;;;;;;4947485;28;19931;-83
2022/04/28 07:30:48;;;;;;;;;;;13.00;65.40;;;;;;4943920;28;19933;-88
2022/04/28 07:33:19;;;;;;;;;;;12.70;63.20;;;;;;4934586;29;19927;-84
2022/04/28 07:35:45;;;;;;;;;;;12.70;63.70;;;;;;4944682;28;20300;-87
2022/04/28 07:38:12;;;;;;;;;;;13.40;60.40;;;;;;4949144;28;20393;-90
2022/04/28 07:40:39;;;;;;;;;;;12.80;61.70;;;;;;4948292;28;20349;-87
2022/04/28 07:43:06;;;;;;;;;;;13.20;60.70;;;;;;4952492;28;19926;-86
2022/04/28 07:45:32;;;;;;;;;;;13.50;61.60;;;;;;4943184;28;20014;-89
2022/04/28 07:48:00;;;;;;;;;;;13.50;56.30;;;;;;4950514;28;20021;-85
2022/04/28 07:50:30;;;;;;;;;;;13.10;58.50;;;;;;4944817;28;19935;-84
2022/04/28 07:52:57;;;;;;;;;;;13.00;56.10;;;;;;4935529;28;20436;-79
2022/04/28 07:55:24;;;;;;;;;;;12.50;57.00;;;;;;4934093;28;19934;-80
2022/04/28 07:57:50;;;;;;;;;;;13.20;57.30;;;;;;4944776;28;20053;-81
2022/04/28 08:00:18;;;;;;;;;;;13.60;56.10;;;;;;4948596;28;19926;-80
2022/04/28 08:02:44;;;;;;;;;;;13.50;55.40;;;;;;4946604;28;19969;-78
2022/04/28 08:05:11;;;;;;;;;;;13.60;55.50;;;;;;4941624;28;19927;-79
2022/04/28 08:07:39;;;;;;;;;;;13.70;55.20;;;;;;4941986;28;19926;-78
2022/04/28 08:10:06;;;;;;;;;;;14.20;54.30;;;;;;4941377;28;19927;-80
2022/04/28 08:12:33;;;;;;;;;;;14.70;52.00;;;;;;4946557;28;19926;-80
2022/04/28 08:15:00;;;;;;;;;;;14.70;51.50;;;;;;4943802;28;20022;-80
2022/04/28 08:17:27;;;;;;;;;;;14.90;51.40;;;;;;4938590;28;19930;-82
2022/04/28 08:19:54;;;;;;;;;;;14.00;51.60;;;;;;4937037;29;19926;-84
2022/04/28 08:22:20;;;;;;;;;;;15.00;51.80;;;;;;4941190;28;19992;-79
2022/04/28 08:24:48;;;;;;;;;;;15.80;49.60;;;;;;4942439;28;20018;-80
2022/04/28 08:27:15;;;;;;;;;;;15.40;46.50;;;;;;4942083;28;19926;-81
2022/04/28 08:29:41;;;;;;;;;;;14.50;47.90;;;;;;4943016;28;19969;-81
2022/04/28 08:32:09;;;;;;;;;;;14.60;47.10;;;;;;4943579;28;19926;-80
2022/04/28 08:34:36;;;;;;;;;;;14.30;46.70;;;;;;4938736;28;19927;-78
2022/04/28 08:37:03;;;;;;;;;;;14.40;47.50;;;;;;4938516;28;19927;-80
2022/04/28 08:39:30;;;;;;;;;;;14.70;47.20;;;;;;4948153;28;19933;-80
2022/04/28 08:42:00;;;;;;;;;;;15.20;47.10;;;;;;4951179;28;19926;-81
2022/04/28 08:44:30;;;;;;;;;;;15.20;45.40;;;;;;4932114;29;19953;-79
2022/04/28 08:46:57;;;;;;;;;;;14.50;45.90;;;;;;4946068;28;19973;-86
2022/04/28 08:49:24;;;;;;;;;;;14.40;46.00;;;;;;4937481;28;19927;-86
2022/04/28 08:51:52;;;;;;;;;;;15.00;46.50;;;;;;4944838;28;19930;-85
2022/04/28 08:54:19;;;;;;;;;;;15.60;44.00;;;;;;4949078;28;19931;-85
2022/04/28 08:56:46;;;;;;;;;;;15.60;41.90;;;;;;4941195;28;19931;-88
2022/04/28 08:59:14;;;;;;;;;;;14.60;44.20;;;;;;4947045;28;19961;-80
2022/04/28 09:01:41;;;;;;;;;;;15.00;44.00;;;;;;4948058;28;19926;-78
2022/04/28 09:04:10;;;;;;;;;;;14.40;44.80;;;;;;4950051;28;19970;-78
2022/04/28 09:06:37;;;;;;;;;;;15.20;45.00;;;;;;4942425;28;19931;-78
2022/04/28 09:09:05;;;;;;;;;;;15.10;43.20;;;;;;4933767;28;19933;-78
2022/04/28 09:11:34;;;;;;;;;;;15.00;42.30;;;;;;4932689;28;19927;-76
2022/04/28 09:14:12;;;;;;;;;;;15.60;41.80;;;;;;4954059;28;19949;-83
2022/04/28 09:16:42;;;;;;;;;;;15.50;42.00;;;;;;4957299;28;19927;-78
2022/04/28 09:19:09;;;;;;;;;;;14.90;40.90;;;;;;4934413;28;19945;-82
2022/04/28 09:21:37;;;;;;;;;;;15.00;42.50;;;;;;4947389;29;19973;-87
2022/04/28 09:24:04;;;;;;;;;;;14.90;43.80;;;;;;4946403;28;19926;-81
2022/04/28 09:26:33;;;;;;;;;;;15.10;41.90;;;;;;4949566;28;19927;-78
2022/04/28 09:29:02;;;;;;;;;;;15.90;41.00;;;;;;4946089;28;20383;-80
2022/04/28 09:31:30;;;;;;;;;;;15.90;40.00;;;;;;4946416;28;19931;-78
2022/04/28 09:34:03;;;;;;;;;;;16.20;39.30;;;;;;4936545;28;19989;-77
2022/04/28 09:36:30;;;;;;;;;;;15.70;39.00;;;;;;4948009;28;19926;-77
2022/04/28 09:38:57;;;;;;;;;;;15.00;40.80;;;;;;4936750;28;19927;-78
2022/04/28 09:44:08;;;;;;;;;;;15.40;39.80;;;;;;4951086;28;19934;-77
2022/04/28 09:46:39;;;;;;;;;;;15.60;40.80;;;;;;4948618;28;19927;-77
2022/04/28 09:49:08;;;;;;;;;;;15.70;37.70;;;;;;4944826;28;19933;-77
2022/04/28 09:51:37;;;;;;;;;;;15.90;38.40;;;;;;4949008;28;19926;-77
2022/04/28 09:54:06;;;;;;;;;;;15.80;38.60;;;;;;4937091;28;20396;-77
2022/04/28 09:56:34;;;;;;;;;;;16.70;39.10;;;;;;4950663;28;19927;-77
2022/04/28 09:59:01;;;;;;;;;;;16.20;36.60;;;;;;4949258;28;20390;-77
2022/04/28 10:01:29;;;;;;;;;;;16.40;38.30;;;;;;4946248;28;20413;-78
2022/04/28 10:03:55;;;;;;;;;;;15.60;39.40;;;;;;4947739;28;20390;-77
2022/04/28 10:06:24;;;;;;;;;;;15.10;40.00;;;;;;4938734;29;19931;-78
2022/04/28 10:08:52;;;;;;;;;;;15.20;39.50;;;;;;4942925;28;19934;-78
2022/04/28 10:11:21;;;;;;;;;;;15.20;39.20;;;;;;4935924;28;19933;-76
2022/04/28 10:13:49;;;;;;;;;;;15.20;39.50;;;;;;4941877;28;20387;-77
2022/04/28 10:16:17;;;;;;;;;;;15.10;41.70;;;;;;4951488;28;19927;-77
2022/04/28 10:18:46;;;;;;;;;;;15.10;40.60;;;;;;4950520;28;19932;-76
2022/04/28 10:21:15;;;;;;;;;;;15.10;39.60;;;;;;4951098;28;20358;-76
2022/04/28 10:35:03;;;;;;;;;;;15.40;39.10;;;;;;4944647;28;19977;-77
2022/04/28 10:37:33;;;;;;;;;;;15.50;40.00;;;;;;4941524;28;19933;-76
2022/04/28 10:40:02;;;;;;;;;;;15.70;41.10;;;;;;4947158;28;19992;-77
2022/04/28 10:42:47;;;;;;;;;;;15.50;39.90;;;;;;4945893;28;19973;-76
2022/04/28 10:45:19;;;;;;;;;;;15.50;38.90;;;;;;4934694;28;19981;-77
2022/04/28 10:47:46;;;;;;;;;;;15.40;40.30;;;;;;4947750;28;19995;-77
2022/04/28 10:50:21;;;;;;;;;;;15.60;38.60;;;;;;4949031;28;20338;-77
2022/04/28 10:52:54;;;;;;;;;;;15.60;39.00;;;;;;4949415;28;20041;-77
2022/04/28 10:55:23;;;;;;;;;;;16.20;38.50;;;;;;4941968;28;19927;-79
2022/04/28 10:57:50;;;;;;;;;;;16.10;39.70;;;;;;4940061;28;20010;-77
2022/04/28 11:00:32;;;;;;;;;;;16.00;37.30;;;;;;4937864;28;20374;-77
2022/04/28 11:02:59;;;;;;;;;;;15.50;39.30;;;;;;4945587;28;20364;-79
2022/04/28 11:05:38;;;;;;;;;;;15.80;38.20;;;;;;4946933;28;19935;-79
2022/04/28 11:08:05;;;;;;;;;;;15.60;38.30;;;;;;4938029;28;20005;-76
2022/04/28 11:10:33;;;;;;;;;;;16.00;40.30;;;;;;4945918;28;20300;-78
2022/04/28 11:13:10;;;;;;;;;;;15.70;37.10;;;;;;4952560;28;19926;-77
2022/04/28 11:15:36;;;;;;;;;;;15.70;37.30;;;;;;4942383;28;20365;-78
2022/04/28 11:18:03;;;;;;;;;;;16.10;38.60;;;;;;4946375;28;19926;-80
2022/04/28 11:20:30;;;;;;;;;;;15.90;39.60;;;;;;4939751;28;19934;-80
2022/04/28 11:22:57;;;;;;;;;;;16.10;36.90;;;;;;4949138;28;19927;-78
2022/04/28 11:25:24;;;;;;;;;;;16.40;37.20;;;;;;4945972;28;19933;-77
2022/04/28 11:27:53;;;;;;;;;;;16.30;37.40;;;;;;4936703;28;20459;-77
2022/04/28 11:30:21;;;;;;;;;;;16.40;36.30;;;;;;4943426;28;19934;-74
2022/04/28 11:32:50;;;;;;;;;;;16.60;36.50;;;;;;4945182;28;19961;-78
2022/04/28 11:35:16;;;;;;;;;;;16.80;35.00;;;;;;4933314;29;20262;-79
2022/04/28 11:37:43;;;;;;;;;;;16.10;36.40;;;;;;4935142;28;20013;-79
2022/04/28 11:40:13;;;;;;;;;;;15.80;37.00;;;;;;4949532;28;19933;-78
2022/04/28 11:42:41;;;;;;;;;;;16.20;38.00;;;;;;4942310;28;19933;-76
2022/04/28 11:45:10;;;;;;;;;;;16.70;35.60;;;;;;4934615;29;19931;-79
2022/04/28 11:47:42;;;;;;;;;;;16.80;36.10;;;;;;4939859;28;19930;-77
2022/04/28 11:50:17;;;;;;;;;;;16.40;35.50;;;;;;4940169;28;20468;-77
2022/04/28 11:52:44;;;;;;;;;;;16.30;35.90;;;;;;4952248;28;20033;-79
2022/04/28 11:55:11;;;;;;;;;;;16.80;36.50;;;;;;4940699;28;19970;-76
2022/04/28 11:57:39;;;;;;;;;;;16.20;35.60;;;;;;4942693;28;19984;-77
2022/04/28 12:00:07;;;;;;;;;;;16.70;39.10;;;;;;4941409;28;19933;-78
2022/04/28 12:02:36;;;;;;;;;;;16.30;37.50;;;;;;4947317;28;19931;-79
2022/04/28 12:05:03;;;;;;;;;;;16.20;35.80;;;;;;4940410;28;19926;-76
2022/04/28 12:07:34;;;;;;;;;;;16.50;37.00;;;;;;4934141;28;19927;-77
2022/04/28 12:15:30;;;;;;;;;;;16.80;35.80;;;;;;4939440;28;19938;-78
2022/04/28 12:20:53;;;;;;;;;;;17.00;35.90;;;;;;4933050;29;19934;-76
2022/04/28 12:23:30;;;;;;;;;;;17.30;37.90;;;;;;4932051;28;19927;-78
2022/04/28 12:25:58;;;;;;;;;;;17.60;35.10;;;;;;4937236;28;19965;-75
2022/04/28 12:28:29;;;;;;;;;;;17.70;34.00;;;;;;4947799;28;19927;-77
2022/04/28 12:30:56;;;;;;;;;;;17.30;34.50;;;;;;4946594;28;19981;-76
2022/04/28 12:33:26;;;;;;;;;;;17.40;36.00;;;;;;4946562;28;20441;-77
2022/04/28 12:35:53;;;;;;;;;;;17.10;34.40;;;;;;4940720;28;20308;-77
2022/04/28 12:38:24;;;;;;;;;;;17.40;35.40;;;;;;4946562;28;19961;-75
2022/04/28 12:40:51;;;;;;;;;;;16.80;32.70;;;;;;4933485;28;19933;-76
2022/04/28 12:43:36;;;;;;;;;;;17.10;33.50;;;;;;4941992;28;20377;-75
2022/04/28 12:46:05;;;;;;;;;;;17.60;33.60;;;;;;4944008;28;19938;-77
2022/04/28 12:48:34;;;;;;;;;;;17.50;33.20;;;;;;4939267;28;19927;-82
2022/04/28 12:51:08;;;;;;;;;;;17.50;35.60;;;;;;4939568;28;19949;-77
2022/04/28 12:53:35;;;;;;;;;;;17.10;33.30;;;;;;4932530;29;19931;-71
2022/04/28 12:56:02;;;;;;;;;;;17.30;33.00;;;;;;4944170;28;19932;-72
2022/04/28 12:58:29;;;;;;;;;;;17.50;34.80;;;;;;4944075;28;20370;-73
2022/04/28 13:00:56;;;;;;;;;;;17.10;32.50;;;;;;4938203;28;20381;-71
2022/04/28 13:03:27;;;;;;;;;;;17.20;32.60;;;;;;4966382;28;19926;-73
2022/04/28 13:05:55;;;;;;;;;;;17.10;34.20;;;;;;4948785;28;19935;-76
2022/04/28 13:08:22;;;;;;;;;;;17.20;34.10;;;;;;4943899;28;20534;-75
2022/04/28 13:10:49;;;;;;;;;;;17.10;33.90;;;;;;4941553;28;19988;-72
2022/04/28 13:13:16;;;;;;;;;;;17.00;32.40;;;;;;4949102;28;20021;-73
2022/04/28 13:15:43;;;;;;;;;;;17.40;32.70;;;;;;4939977;28;19973;-72
2022/04/28 13:18:10;;;;;;;;;;;17.60;33.30;;;;;;4939466;28;20022;-72
2022/04/28 13:20:36;;;;;;;;;;;17.60;31.90;;;;;;4937860;28;20021;-72
2022/04/28 13:23:05;;;;;;;;;;;17.70;32.70;;;;;;4943069;28;19933;-71
2022/04/28 13:25:31;;;;;;;;;;;18.10;33.00;;;;;;4939609;28;20360;-71
2022/04/28 13:27:58;;;;;;;;;;;18.20;32.70;;;;;;4948545;28;19926;-74
2022/04/28 13:30:25;;;;;;;;;;;18.20;30.40;;;;;;4938490;28;19958;-75
2022/04/28 13:32:51;;;;;;;;;;;18.10;32.50;;;;;;4938550;28;20026;-75
2022/04/28 13:35:18;;;;;;;;;;;18.20;32.30;;;;;;4941196;28;20361;-75
2022/04/28 13:37:47;;;;;;;;;;;18.20;30.80;;;;;;4945725;28;19938;-77
2022/04/28 13:40:15;;;;;;;;;;;18.40;32.20;;;;;;4946156;28;20013;-76
2022/04/28 13:42:42;;;;;;;;;;;18.50;32.40;;;;;;4945525;28;19926;-76
2022/04/28 13:45:10;;;;;;;;;;;18.20;31.70;;;;;;4946368;28;19934;-76
2022/04/28 13:47:36;;;;;;;;;;;18.40;29.10;;;;;;4949099;28;20022;-75
2022/04/28 13:50:03;;;;;;;;;;;18.40;31.50;;;;;;4945696;28;19933;-76
2022/04/28 13:52:30;;;;;;;;;;;18.30;30.30;;;;;;4947302;28;20032;-77
2022/04/28 13:54:56;;;;;;;;;;;18.30;28.50;;;;;;4945129;28;20022;-76
2022/04/28 13:57:24;;;;;;;;;;;18.40;29.20;;;;;;4938973;28;19932;-76
2022/04/28 13:59:51;;;;;;;;;;;18.40;30.00;;;;;;4935283;28;20013;-75
2022/04/28 14:02:18;;;;;;;;;;;18.20;29.60;;;;;;4936913;28;19968;-76
2022/04/28 14:04:44;;;;;;;;;;;18.00;30.00;;;;;;4940228;28;20065;-75
2022/04/28 14:07:11;;;;;;;;;;;18.20;30.00;;;;;;4974512;28;20418;-75
2022/04/28 14:09:38;;;;;;;;;;;18.10;29.80;;;;;;4950460;28;19936;-76
2022/04/28 14:12:05;;;;;;;;;;;18.20;30.00;;;;;;4942177;28;19934;-77
2022/04/28 14:14:33;;;;;;;;;;;18.10;30.30;;;;;;4941224;28;20293;-76
2022/04/28 14:16:59;;;;;;;;;;;18.30;30.60;;;;;;4940313;28;19937;-76
2022/04/28 14:19:26;;;;;;;;;;;18.30;29.70;;;;;;4948615;28;19953;-74
2022/04/28 14:21:54;;;;;;;;;;;18.40;29.20;;;;;;4942512;28;19934;-76
2022/04/28 14:24:21;;;;;;;;;;;18.10;29.20;;;;;;4944641;28;20294;-76
2022/04/28 14:26:48;;;;;;;;;;;18.50;28.70;;;;;;4952979;28;19935;-76
2022/04/28 14:29:15;;;;;;;;;;;18.60;28.10;;;;;;4934341;28;19993;-74
2022/04/28 14:31:43;;;;;;;;;;;18.60;28.10;;;;;;4941713;28;20310;-76
2022/04/28 14:34:11;;;;;;;;;;;18.20;29.40;;;;;;4941178;28;20353;-76
2022/04/28 14:36:38;;;;;;;;;;;18.10;29.90;;;;;;4939070;28;20017;-78
2022/04/28 14:39:05;;;;;;;;;;;17.60;28.90;;;;;;4945518;28;19988;-75
2022/04/28 14:41:32;;;;;;;;;;;17.70;29.80;;;;;;4937516;28;19941;-76
2022/04/28 14:44:01;;;;;;;;;;;17.80;29.40;;;;;;4939119;28;19992;-76
2022/04/28 14:46:28;;;;;;;;;;;17.80;28.60;;;;;;4935713;28;19927;-76
2022/04/28 14:54:27;;;;;;;;;;;17.80;28.80;;;;;;4941168;28;19934;-76
2022/04/28 14:56:54;;;;;;;;;;;17.50;28.90;;;;;;4939889;28;19927;-77
2022/04/28 14:59:21;;;;;;;;;;;17.60;30.00;;;;;;4939365;28;20036;-77
2022/04/28 15:01:48;;;;;;;;;;;17.80;31.00;;;;;;4943681;28;19927;-76
2022/04/28 15:04:16;;;;;;;;;;;17.80;30.20;;;;;;4943701;28;20028;-77
2022/04/28 15:06:43;;;;;;;;;;;17.70;29.90;;;;;;4937611;28;19926;-77
2022/04/28 15:09:10;;;;;;;;;;;17.40;31.50;;;;;;4948331;28;20403;-77
2022/04/28 15:11:37;;;;;;;;;;;17.40;30.00;;;;;;4942063;28;19931;-78
2022/04/28 15:14:04;;;;;;;;;;;17.20;29.60;;;;;;4941017;28;20009;-77